Time;durP1;ratioP1;P1;durP2;ratioP2;P2;SDS_P1;SDS_P2;PMS_P1;PMS_P2;Temp;Humidity;BMP_temperature;BMP_pressure;BME280_temperature;BME280_humidity;BME280_pressure;Samples;Min_cycle;Max_cycle;Signal;HPM_P1;HPM_P2
2020/12/29 00:00:20;;;;;;;0.73;0.73;;;6.40;99.90;;;;;;5076361;28;20155;-78
2020/12/29 00:02:48;;;;;;;0.40;0.40;;;6.50;99.90;;;;;;5076227;28;20155;-79
2020/12/29 00:05:14;;;;;;;1.00;1.00;;;6.70;99.90;;;;;;5076334;28;20180;-75
2020/12/29 00:07:39;;;;;;;3.60;2.45;;;6.50;99.90;;;;;;5076230;28;20238;-75
2020/12/29 00:10:05;;;;;;;0.77;0.77;;;6.30;99.90;;;;;;5075966;28;20265;-76
2020/12/29 00:12:31;;;;;;;0.47;0.47;;;6.00;99.90;;;;;;5076143;28;20182;-79
2020/12/29 00:14:56;;;;;;;0.63;0.63;;;5.90;99.90;;;;;;5076107;28;20210;-77
2020/12/29 00:17:22;;;;;;;0.50;0.50;;;5.80;99.90;;;;;;5076500;28;20163;-77
2020/12/29 00:19:47;;;;;;;8.32;1.60;;;5.50;99.90;;;;;;5076094;28;20155;-77
2020/12/29 00:22:13;;;;;;;8.35;1.50;;;5.60;99.90;;;;;;5075986;28;20159;-76
2020/12/29 00:24:38;;;;;;;0.88;0.80;;;5.60;99.90;;;;;;5075763;28;20343;-77
2020/12/29 00:27:04;;;;;;;0.32;0.32;;;5.80;99.90;;;;;;5075824;28;20163;-78
2020/12/29 00:29:31;;;;;;;0.40;0.40;;;5.80;99.90;;;;;;5075805;28;20163;-78
2020/12/29 00:31:57;;;;;;;1.17;1.17;;;6.00;99.90;;;;;;5075604;28;20198;-74
2020/12/29 00:34:23;;;;;;;1.00;1.00;;;6.00;99.90;;;;;;5075674;28;20729;-74
2020/12/29 00:36:52;;;;;;;0.65;0.65;;;6.20;99.90;;;;;;5074345;28;20215;-74
2020/12/29 00:39:17;;;;;;;0.47;0.47;;;6.40;99.90;;;;;;5075666;28;20633;-77
2020/12/29 00:41:43;;;;;;;0.75;0.75;;;6.40;99.90;;;;;;5076256;28;20171;-75
2020/12/29 00:44:08;;;;;;;1.33;1.27;;;6.40;99.90;;;;;;5075558;28;20194;-77
2020/12/29 00:46:34;;;;;;;0.88;0.88;;;6.10;99.90;;;;;;5075602;28;20212;-75
2020/12/29 00:48:59;;;;;;;0.52;0.52;;;6.20;99.90;;;;;;5075569;28;20170;-77
2020/12/29 00:51:25;;;;;;;0.85;0.85;;;6.00;99.90;;;;;;5075419;28;20669;-78
2020/12/29 00:53:51;;;;;;;0.70;0.70;;;6.10;99.90;;;;;;5075477;28;20155;-78
2020/12/29 00:56:16;;;;;;;1.08;1.08;;;5.80;99.90;;;;;;5075428;28;20223;-79
2020/12/29 00:58:42;;;;;;;0.50;0.50;;;5.60;99.90;;;;;;5076371;28;20170;-75
2020/12/29 01:01:09;;;;;;;1.13;0.93;;;5.70;99.90;;;;;;5085913;28;20186;-74
2020/12/29 01:03:35;;;;;;;0.93;0.93;;;5.70;99.90;;;;;;5098756;28;20167;-75
2020/12/29 01:06:01;;;;;;;0.45;0.45;;;5.80;99.90;;;;;;5087513;28;20210;-77
2020/12/29 01:08:26;;;;;;;0.73;0.73;;;6.00;99.90;;;;;;5075366;28;20154;-77
2020/12/29 01:10:56;;;;;;;1.33;1.20;;;6.10;99.90;;;;;;5075175;28;20550;-75
2020/12/29 01:13:22;;;;;;;0.85;0.85;;;6.10;99.90;;;;;;5073953;28;20170;-77
2020/12/29 01:15:48;;;;;;;2.78;1.30;;;5.80;99.90;;;;;;5073735;28;20589;-78
2020/12/29 01:18:14;;;;;;;0.80;0.80;;;5.70;99.90;;;;;;5073853;28;20264;-76
2020/12/29 01:20:40;;;;;;;1.10;1.10;;;5.70;99.90;;;;;;5074861;28;20194;-78
2020/12/29 01:23:05;;;;;;;5.10;2.05;;;5.90;99.90;;;;;;5073651;28;20223;-78
2020/12/29 01:25:31;;;;;;;4.78;0.93;;;6.20;99.90;;;;;;5074951;28;20193;-79
2020/12/29 01:27:57;;;;;;;2.08;1.90;;;6.40;99.90;;;;;;5074910;28;20205;-77
2020/12/29 01:30:22;;;;;;;0.73;0.73;;;6.50;99.90;;;;;;5074689;28;20273;-75
2020/12/29 01:32:48;;;;;;;0.20;0.20;;;6.40;99.90;;;;;;5074634;28;20293;-75
2020/12/29 01:35:14;;;;;;;1.48;1.13;;;6.30;99.90;;;;;;5074553;28;20273;-78
2020/12/29 01:37:44;;;;;;;1.85;1.75;;;6.10;99.90;;;;;;5074464;28;20170;-75
2020/12/29 01:40:11;;;;;;;0.98;0.98;;;6.30;99.90;;;;;;5074455;28;20243;-74
2020/12/29 01:42:37;;;;;;;1.15;0.55;;;6.30;99.90;;;;;;5074369;28;20586;-79
2020/12/29 01:45:07;;;;;;;0.73;0.68;;;6.30;99.90;;;;;;5074357;28;20186;-78
2020/12/29 01:47:35;;;;;;;0.68;0.68;;;6.30;99.90;;;;;;5074314;28;20185;-78
2020/12/29 01:50:01;;;;;;;0.63;0.63;;;6.10;99.90;;;;;;5074356;28;20517;-78
2020/12/29 01:52:27;;;;;;;1.17;0.77;;;6.40;99.90;;;;;;5074223;28;20174;-79
2020/12/29 01:54:53;;;;;;;0.88;0.88;;;6.20;99.90;;;;;;5074176;28;20186;-74
2020/12/29 01:57:18;;;;;;;0.57;0.57;;;6.10;99.90;;;;;;5074235;28;20212;-77
2020/12/29 01:59:44;;;;;;;0.90;0.90;;;5.80;99.90;;;;;;5072906;28;20166;-78
2020/12/29 02:02:10;;;;;;;0.80;0.80;;;5.50;99.90;;;;;;5074074;28;20167;-75
2020/12/29 02:04:36;;;;;;;0.50;0.50;;;5.50;99.90;;;;;;5074015;28;20190;-76
2020/12/29 02:07:01;;;;;;;0.75;0.75;;;5.40;99.90;;;;;;5074031;28;20707;-75
2020/12/29 02:09:28;;;;;;;1.63;1.20;;;5.70;99.90;;;;;;5073961;28;20203;-78
2020/12/29 02:11:53;;;;;;;0.65;0.65;;;6.10;99.90;;;;;;5073587;28;20226;-74
2020/12/29 02:14:19;;;;;;;1.90;0.82;;;6.10;99.90;;;;;;5073740;28;20590;-79
2020/12/29 02:16:44;;;;;;;2.15;1.98;;;5.90;99.90;;;;;;5073838;28;20170;-74
2020/12/29 02:19:11;;;;;;;0.70;0.57;;;6.10;99.90;;;;;;5074064;28;20155;-74
2020/12/29 02:21:38;;;;;;;1.75;0.77;;;6.00;99.90;;;;;;5073466;28;20253;-75
2020/12/29 02:24:05;;;;;;;0.85;0.85;;;6.00;99.90;;;;;;5073765;28;20162;-79
2020/12/29 02:26:32;;;;;;;1.35;1.33;;;5.90;99.90;;;;;;5073572;28;20224;-79
2020/12/29 02:28:59;;;;;;;1.17;1.02;;;5.90;99.90;;;;;;5073458;28;20564;-78
2020/12/29 02:31:25;;;;;;;1.60;1.17;;;6.00;99.90;;;;;;5073514;28;20228;-76
2020/12/29 02:33:50;;;;;;;1.38;1.27;;;6.00;99.90;;;;;;5073323;28;20212;-78
2020/12/29 02:36:16;;;;;;;0.50;0.50;;;6.10;99.90;;;;;;5073448;28;20181;-79
2020/12/29 02:38:42;;;;;;;3.42;1.05;;;6.10;99.90;;;;;;5073374;28;20590;-74
2020/12/29 02:41:08;;;;;;;0.90;0.90;;;5.90;99.90;;;;;;5073496;28;20217;-76
2020/12/29 02:43:33;;;;;;;0.88;0.88;;;5.70;99.90;;;;;;5073481;28;20204;-75
2020/12/29 02:46:00;;;;;;;0.82;0.82;;;6.00;99.90;;;;;;5073197;28;20201;-74
2020/12/29 02:48:26;;;;;;;1.20;1.20;;;6.10;99.90;;;;;;5073231;28;20250;-78
2020/12/29 02:50:51;;;;;;;0.80;0.80;;;5.80;99.90;;;;;;5073251;28;20277;-77
2020/12/29 02:53:17;;;;;;;0.50;0.50;;;5.90;99.90;;;;;;5073254;28;20159;-74
2020/12/29 02:55:42;;;;;;;3.08;2.15;;;5.90;99.90;;;;;;5073163;28;20237;-77
2020/12/29 02:58:08;;;;;;;0.20;0.20;;;6.00;99.90;;;;;;5073314;28;20585;-77
2020/12/29 03:00:35;;;;;;;1.08;1.08;;;6.20;99.90;;;;;;5073168;28;20157;-74
2020/12/29 03:03:01;;;;;;;14.95;3.20;;;6.20;99.90;;;;;;5073169;28;20170;-78
2020/12/29 03:05:26;;;;;;;1.00;1.00;;;5.90;99.90;;;;;;5073114;28;20186;-74
2020/12/29 03:07:52;;;;;;;1.85;1.75;;;5.80;99.90;;;;;;5073060;28;20176;-77
2020/12/29 03:10:17;;;;;;;0.80;0.80;;;5.80;99.90;;;;;;5072860;28;20231;-75
2020/12/29 03:12:43;;;;;;;0.50;0.50;;;5.90;99.90;;;;;;5072989;28;20253;-78
2020/12/29 03:15:08;;;;;;;1.30;0.88;;;5.70;99.90;;;;;;5072996;28;20300;-74
2020/12/29 03:17:35;;;;;;;1.65;0.95;;;5.60;99.90;;;;;;5072999;28;20170;-74
2020/12/29 03:20:03;;;;;;;0.30;0.30;;;5.40;99.90;;;;;;5072945;28;20204;-78
2020/12/29 03:22:28;;;;;;;0.95;0.95;;;5.50;99.90;;;;;;5072980;28;20168;-78
2020/12/29 03:24:54;;;;;;;1.58;1.17;;;5.50;99.90;;;;;;5071491;28;20194;-77
2020/12/29 03:27:19;;;;;;;2.58;1.10;;;5.40;99.90;;;;;;5072909;28;20192;-78
2020/12/29 03:29:45;;;;;;;0.60;0.60;;;5.50;99.90;;;;;;5073040;28;20629;-74
2020/12/29 03:32:11;;;;;;;0.63;0.63;;;5.50;99.90;;;;;;5073802;28;20292;-75
2020/12/29 03:34:37;;;;;;;0.47;0.47;;;5.40;99.90;;;;;;5086158;28;20221;-74
2020/12/29 03:37:10;;;;;;;1.15;0.60;;;5.80;99.90;;;;;;5093143;28;20641;-77
2020/12/29 03:39:37;;;;;;;1.17;1.17;;;5.90;99.90;;;;;;5095992;28;20253;-76
2020/12/29 03:42:03;;;;;;;0.77;0.77;;;5.80;99.90;;;;;;5077644;28;20178;-74
2020/12/29 03:44:29;;;;;;;0.40;0.40;;;5.70;99.90;;;;;;5076883;28;20182;-76
2020/12/29 03:46:55;;;;;;;0.90;0.90;;;5.60;99.90;;;;;;5076924;28;20707;-74
2020/12/29 03:49:21;;;;;;;0.45;0.45;;;5.50;99.90;;;;;;5076743;28;20610;-74
2020/12/29 03:51:46;;;;;;;0.85;0.80;;;5.40;99.90;;;;;;5076533;28;20205;-74
2020/12/29 03:54:12;;;;;;;0.85;0.85;;;5.30;99.90;;;;;;5076829;28;20191;-77
2020/12/29 03:56:38;;;;;;;0.75;0.75;;;5.30;99.90;;;;;;5076819;28;20241;-75
2020/12/29 03:59:04;;;;;;;0.85;0.85;;;5.30;99.90;;;;;;5076724;28;20167;-75
2020/12/29 04:01:29;;;;;;;0.32;0.32;;;5.30;99.90;;;;;;5076341;28;20162;-79
2020/12/29 04:03:55;;;;;;;0.30;0.30;;;5.40;99.90;;;;;;5076373;28;20169;-75
2020/12/29 04:06:20;;;;;;;0.25;0.25;;;5.60;99.90;;;;;;5076349;28;20212;-79
2020/12/29 04:08:46;;;;;;;0.30;0.30;;;5.80;99.90;;;;;;5076333;28;20175;-74
2020/12/29 04:11:12;;;;;;;0.57;0.57;;;6.00;99.90;;;;;;5075955;28;20283;-79
2020/12/29 04:13:39;;;;;;;1.83;1.08;;;6.10;99.90;;;;;;5076204;28;20155;-75
2020/12/29 04:16:04;;;;;;;0.47;0.47;;;6.10;99.90;;;;;;5075996;28;20229;-79
2020/12/29 04:18:31;;;;;;;0.70;0.70;;;6.00;99.90;;;;;;5076057;28;20660;-78
2020/12/29 04:20:56;;;;;;;0.55;0.55;;;6.00;99.90;;;;;;5075979;28;20182;-77
2020/12/29 04:23:22;;;;;;;0.45;0.45;;;5.80;99.90;;;;;;5075959;28;20201;-77
2020/12/29 04:25:48;;;;;;;0.75;0.75;;;6.00;99.90;;;;;;5075857;28;20201;-78
2020/12/29 04:28:13;;;;;;;1.15;1.15;;;5.90;99.90;;;;;;5075780;28;20166;-75
2020/12/29 04:30:39;;;;;;;1.05;1.05;;;5.70;99.90;;;;;;5075703;28;20689;-75
2020/12/29 04:33:04;;;;;;;0.50;0.50;;;5.70;99.90;;;;;;5075785;28;20163;-75
2020/12/29 04:35:30;;;;;;;0.68;0.68;;;5.70;99.90;;;;;;5075770;28;20195;-78
2020/12/29 04:37:55;;;;;;;0.70;0.70;;;5.70;99.90;;;;;;5075664;28;20523;-74
2020/12/29 04:40:21;;;;;;;4.18;1.42;;;5.70;99.90;;;;;;5075772;28;20262;-78
2020/12/29 04:42:47;;;;;;;0.85;0.75;;;5.80;99.90;;;;;;5075076;28;20163;-78
2020/12/29 04:45:13;;;;;;;1.70;1.60;;;5.60;99.90;;;;;;5075415;28;20266;-75
2020/12/29 04:47:40;;;;;;;1.00;0.93;;;5.70;99.90;;;;;;5074208;28;20193;-74
2020/12/29 04:50:06;;;;;;;0.77;0.77;;;5.80;99.90;;;;;;5075384;28;20602;-77
2020/12/29 04:52:32;;;;;;;0.50;0.50;;;5.80;99.90;;;;;;5075331;28;20638;-77
2020/12/29 04:55:00;;;;;;;4.75;2.25;;;6.00;99.90;;;;;;5075377;28;20754;-74
2020/12/29 04:57:26;;;;;;;1.05;1.00;;;6.10;99.90;;;;;;5075311;28;20605;-74
2020/12/29 04:59:52;;;;;;;0.55;0.55;;;6.10;99.90;;;;;;5075563;28;20155;-77
2020/12/29 05:02:18;;;;;;;1.48;1.38;;;6.20;99.90;;;;;;5075245;28;20182;-74
2020/12/29 05:04:44;;;;;;;5.72;2.58;;;5.90;99.90;;;;;;5075181;28;20657;-74
2020/12/29 05:07:10;;;;;;;1.45;0.90;;;5.90;99.90;;;;;;5075489;28;20155;-73
2020/12/29 05:09:35;;;;;;;1.38;1.33;;;6.00;99.90;;;;;;5075159;28;20654;-74
2020/12/29 05:12:01;;;;;;;1.67;0.98;;;6.00;99.90;;;;;;5074764;28;20634;-77
2020/12/29 05:14:29;;;;;;;1.45;1.30;;;5.90;99.90;;;;;;5075016;28;20189;-77
2020/12/29 05:16:55;;;;;;;0.57;0.57;;;6.00;99.90;;;;;;5075161;28;20596;-76
2020/12/29 05:19:22;;;;;;;0.55;0.55;;;6.10;99.90;;;;;;5074892;28;20224;-74
2020/12/29 05:21:49;;;;;;;0.60;0.60;;;6.00;99.90;;;;;;5074793;28;20170;-74
2020/12/29 05:24:17;;;;;;;3.45;1.88;;;5.80;99.90;;;;;;5074764;28;20179;-74
2020/12/29 05:26:44;;;;;;;3.83;1.48;;;5.90;99.90;;;;;;5074788;28;20285;-74
2020/12/29 05:29:12;;;;;;;0.88;0.88;;;6.00;99.90;;;;;;5073465;28;20498;-74
2020/12/29 05:31:42;;;;;;;0.30;0.30;;;6.10;99.90;;;;;;5074611;28;20259;-74
2020/12/29 05:34:20;;;;;;;0.38;0.38;;;6.00;99.90;;;;;;5074506;28;20663;-75
2020/12/29 05:36:46;;;;;;;0.40;0.40;;;5.90;99.90;;;;;;5074757;28;20162;-78
2020/12/29 05:39:12;;;;;;;0.60;0.60;;;5.80;99.90;;;;;;5074647;28;20167;-74
2020/12/29 05:41:45;;;;;;;1.75;1.48;;;6.00;99.90;;;;;;5074529;28;20183;-73
2020/12/29 05:44:21;;;;;;;1.40;1.38;;;6.10;99.90;;;;;;5074334;28;20661;-74
2020/12/29 05:46:47;;;;;;;0.75;0.75;;;6.10;99.90;;;;;;5074350;28;20241;-75
2020/12/29 05:49:13;;;;;;;0.40;0.40;;;6.10;99.90;;;;;;5074138;28;20197;-75
2020/12/29 05:51:42;;;;;;;3.83;2.15;;;6.30;99.90;;;;;;5074032;28;20202;-77
2020/12/29 05:54:09;;;;;;;0.88;0.85;;;6.40;99.90;;;;;;5073927;28;20214;-75
2020/12/29 05:56:35;;;;;;;0.85;0.85;;;6.40;99.90;;;;;;5073594;28;20155;-74
2020/12/29 05:59:02;;;;;;;0.50;0.50;;;6.30;99.90;;;;;;5074008;28;20300;-75
2020/12/29 06:01:44;;;;;;;1.42;1.33;;;6.20;99.90;;;;;;5074163;28;20166;-75
2020/12/29 06:04:11;;;;;;;4.22;1.25;;;6.20;99.90;;;;;;5073848;28;20653;-75
2020/12/29 06:06:39;;;;;;;1.13;1.08;;;6.20;99.90;;;;;;5074687;28;20151;-75
2020/12/29 06:09:12;;;;;;;0.45;0.45;;;6.20;99.90;;;;;;5091658;28;20189;-77
2020/12/29 06:11:39;;;;;;;4.03;1.60;;;6.30;99.90;;;;;;5083733;28;20234;-74
2020/12/29 06:14:11;;;;;;;0.93;0.93;;;6.10;99.90;;;;;;5077964;28;20186;-78
2020/12/29 06:16:39;;;;;;;0.75;0.73;;;6.00;99.90;;;;;;5074021;28;20155;-78
2020/12/29 06:19:43;;;;;;;0.90;0.90;;;6.00;99.90;;;;;;5074016;28;20245;-76
2020/12/29 06:22:10;;;;;;;3.15;2.67;;;5.70;99.90;;;;;;5068081;28;20243;-77
2020/12/29 06:24:41;;;;;;;1.23;0.80;;;5.70;99.90;;;;;;5073748;28;20182;-74
2020/12/29 06:27:08;;;;;;;4.03;2.13;;;5.90;99.90;;;;;;5073693;28;20319;-75
2020/12/29 06:29:36;;;;;;;2.42;2.15;;;6.00;99.90;;;;;;5073601;28;20166;-75
2020/12/29 06:32:15;;;;;;;1.98;1.65;;;6.00;99.90;;;;;;5073306;28;20697;-76
2020/12/29 06:34:43;;;;;;;1.52;1.50;;;5.90;99.90;;;;;;5073571;28;20190;-78
2020/12/29 06:37:25;;;;;;;0.73;0.73;;;5.80;99.90;;;;;;5073328;28;20158;-76
2020/12/29 06:39:59;;;;;;;3.88;3.17;;;5.80;99.90;;;;;;5073395;28;20242;-74
2020/12/29 06:42:24;;;;;;;1.77;1.67;;;5.50;99.90;;;;;;5073311;28;20165;-73
2020/12/29 06:44:58;;;;;;;4.35;2.72;;;5.40;99.90;;;;;;5073729;28;20187;-77
2020/12/29 06:47:26;;;;;;;2.78;1.88;;;5.50;99.90;;;;;;5073110;28;20212;-74
2020/12/29 06:49:52;;;;;;;1.35;1.35;;;5.40;99.90;;;;;;5073341;28;20173;-74
2020/12/29 06:52:25;;;;;;;2.47;2.38;;;5.40;99.90;;;;;;5073163;28;20279;-77
2020/12/29 06:54:58;;;;;;;1.30;1.30;;;5.50;99.90;;;;;;5073050;28;20653;-77
2020/12/29 06:57:45;;;;;;;4.75;3.30;;;5.50;99.90;;;;;;5073197;28;20351;-74
2020/12/29 07:00:10;;;;;;;1.40;0.90;;;5.40;99.90;;;;;;5073322;28;20158;-77
2020/12/29 07:02:38;;;;;;;2.10;2.00;;;5.50;99.90;;;;;;5073182;28;20167;-79
2020/12/29 07:05:17;;;;;;;0.60;0.60;;;5.50;99.90;;;;;;5073172;28;20300;-78
2020/12/29 07:07:59;;;;;;;2.65;2.47;;;5.50;99.90;;;;;;5073007;28;20630;-75
2020/12/29 07:10:42;;;;;;;2.58;2.15;;;5.50;99.90;;;;;;5071583;28;20313;-79
2020/12/29 07:13:10;;;;;;;1.80;0.98;;;5.40;99.90;;;;;;5073020;28;20973;-75
2020/12/29 07:15:50;;;;;;;0.80;0.80;;;5.50;99.90;;;;;;5073002;28;20182;-77
2020/12/29 07:18:26;;;;;;;1.45;1.40;;;5.50;99.90;;;;;;5073065;28;20193;-78
2020/12/29 07:20:54;;;;;;;0.70;0.70;;;5.50;99.90;;;;;;5071514;28;20712;-80
2020/12/29 07:23:22;;;;;;;1.65;1.50;;;5.60;99.90;;;;;;5072919;28;20170;-77
2020/12/29 07:25:49;;;;;;;4.80;2.00;;;5.60;99.90;;;;;;5072786;28;20182;-76
2020/12/29 07:28:18;;;;;;;0.73;0.73;;;5.60;99.90;;;;;;5072909;28;20158;-77
2020/12/29 07:30:44;;;;;;;0.98;0.98;;;5.70;99.90;;;;;;5072890;28;20194;-78
2020/12/29 07:33:09;;;;;;;0.85;0.85;;;5.60;99.90;;;;;;5071616;28;20622;-75
2020/12/29 07:35:38;;;;;;;0.77;0.77;;;5.70;99.90;;;;;;5072812;28;20186;-74
2020/12/29 07:38:13;;;;;;;4.65;2.92;;;5.70;99.90;;;;;;5072937;28;20178;-74
2020/12/29 07:40:39;;;;;;;1.92;1.83;;;5.80;99.90;;;;;;5072915;28;20228;-75
2020/12/29 07:43:05;;;;;;;6.95;2.92;;;5.80;99.90;;;;;;5072793;28;20163;-76
2020/12/29 07:45:31;;;;;;;1.42;1.05;;;5.70;99.90;;;;;;5072661;28;20233;-74
2020/12/29 07:48:01;;;;;;;0.82;0.82;;;5.80;99.90;;;;;;5072508;28;20645;-77
2020/12/29 07:50:28;;;;;;;0.60;0.60;;;5.60;99.90;;;;;;5072580;28;20189;-78
2020/12/29 07:53:05;;;;;;;7.53;2.55;;;5.40;99.90;;;;;;5072582;28;20167;-74
2020/12/29 07:55:31;;;;;;;2.97;2.60;;;5.30;99.90;;;;;;5072457;28;20186;-77
2020/12/29 07:58:01;;;;;;;3.03;2.80;;;5.30;99.90;;;;;;5072524;28;20171;-78
2020/12/29 08:00:27;;;;;;;1.80;1.70;;;5.40;99.90;;;;;;5072589;28;20155;-78
2020/12/29 08:02:53;;;;;;;4.03;2.38;;;5.50;99.90;;;;;;5072461;28;20197;-74
2020/12/29 08:05:26;;;;;;;2.38;2.20;;;5.60;99.90;;;;;;5072441;28;20183;-76
2020/12/29 08:08:04;;;;;;;1.08;1.02;;;5.60;99.90;;;;;;5072342;28;20163;-75
2020/12/29 08:10:34;;;;;;;0.77;0.77;;;5.70;99.90;;;;;;5072269;28;20756;-86
2020/12/29 08:13:11;;;;;;;1.15;1.10;;;5.70;99.90;;;;;;5072288;28;20264;-76
2020/12/29 08:15:39;;;;;;;1.75;1.20;;;5.80;99.90;;;;;;5072377;28;20182;-76
2020/12/29 08:18:12;;;;;;;4.10;2.60;;;5.90;99.90;;;;;;5072871;28;20610;-75
2020/12/29 08:20:56;;;;;;;1.95;1.48;;;5.80;99.90;;;;;;5076030;28;20155;-77
2020/12/29 08:23:25;;;;;;;1.67;1.30;;;5.70;99.90;;;;;;5076153;28;20158;-77
2020/12/29 08:25:56;;;;;;;0.80;0.80;;;5.60;99.90;;;;;;5075906;28;20183;-78
2020/12/29 08:28:25;;;;;;;0.55;0.55;;;5.60;99.90;;;;;;5075837;28;20163;-74
2020/12/29 08:30:51;;;;;;;0.93;0.93;;;5.70;99.90;;;;;;5075948;28;20289;-78
2020/12/29 08:33:21;;;;;;;0.93;0.93;;;5.40;99.90;;;;;;5075870;28;20161;-77
2020/12/29 08:35:50;;;;;;;2.33;1.77;;;5.40;99.90;;;;;;5075966;28;20193;-78
2020/12/29 08:38:30;;;;;;;1.20;1.20;;;5.40;99.90;;;;;;5077094;28;20163;-75
2020/12/29 08:41:05;;;;;;;1.95;1.85;;;5.20;99.90;;;;;;5093417;28;20232;-79
2020/12/29 08:43:46;;;;;;;1.17;1.17;;;5.30;99.90;;;;;;5100043;28;20162;-75
2020/12/29 08:46:15;;;;;;;0.63;0.63;;;5.20;99.90;;;;;;5083497;28;20170;-76
2020/12/29 08:48:55;;;;;;;1.20;1.20;;;5.30;99.90;;;;;;5076091;28;20237;-77
2020/12/29 08:51:26;;;;;;;7.43;2.92;;;5.30;99.90;;;;;;5074765;28;20197;-81
2020/12/29 08:54:08;;;;;;;1.25;1.15;;;5.20;99.90;;;;;;5075025;28;20151;-77
2020/12/29 08:56:34;;;;;;;1.80;1.70;;;5.30;99.90;;;;;;5075237;28;20161;-75
2020/12/29 08:59:14;;;;;;;0.88;0.88;;;5.50;99.90;;;;;;5075395;28;20170;-75
2020/12/29 09:01:40;;;;;;;1.38;0.82;;;5.60;99.90;;;;;;5075355;28;20648;-78
2020/12/29 09:04:40;;;;;;;0.82;0.82;;;5.60;99.90;;;;;;5075143;28;20661;-75
2020/12/29 09:07:08;;;;;;;8.15;2.47;;;5.50;99.90;;;;;;5074298;28;20182;-79
2020/12/29 09:09:58;;;;;;;1.08;0.73;;;5.50;99.90;;;;;;5075106;28;20154;-75
2020/12/29 09:12:31;;;;;;;1.92;1.08;;;5.70;99.90;;;;;;5074828;28;20677;-76
2020/12/29 09:14:59;;;;;;;1.00;1.00;;;5.80;99.90;;;;;;5075089;28;20292;-80
2020/12/29 09:17:30;;;;;;;3.90;1.27;;;5.70;99.90;;;;;;5075335;28;20177;-79
2020/12/29 09:20:24;;;;;;;2.50;2.35;;;5.70;99.90;;;;;;5074933;28;20158;-74
2020/12/29 09:23:10;;;;;;;1.65;0.95;;;5.80;99.90;;;;;;5074786;28;20174;-78
2020/12/29 09:25:43;;;;;;;0.95;0.95;;;5.80;99.90;;;;;;5075008;28;20182;-77
2020/12/29 09:28:30;;;;;;;0.57;0.57;;;5.80;99.90;;;;;;5074756;28;20185;-77
2020/12/29 09:30:56;;;;;;;0.95;0.95;;;5.70;99.90;;;;;;5074575;28;20227;-75
2020/12/29 09:33:22;;;;;;;6.10;2.97;;;5.70;99.90;;;;;;5073676;28;20656;-77
2020/12/29 09:35:49;;;;;;;1.58;1.05;;;5.90;99.90;;;;;;5074740;28;20179;-74
2020/12/29 09:38:14;;;;;;;0.32;0.32;;;5.90;99.90;;;;;;5074334;28;20194;-78
2020/12/29 09:40:41;;;;;;;2.50;1.13;;;5.90;99.90;;;;;;5074465;28;20170;-76
2020/12/29 09:43:07;;;;;;;0.70;0.57;;;6.00;99.90;;;;;;5073240;28;20158;-75
2020/12/29 09:45:32;;;;;;;12.48;1.60;;;6.00;99.90;;;;;;5073450;28;20696;-76
2020/12/29 09:47:58;;;;;;;8.68;1.42;;;5.90;99.90;;;;;;5074259;28;20202;-75
2020/12/29 09:50:23;;;;;;;0.82;0.82;;;6.00;99.90;;;;;;5074067;28;20155;-75
2020/12/29 09:52:49;;;;;;;4.38;1.17;;;6.10;99.90;;;;;;5074377;28;20189;-77
2020/12/29 09:55:14;;;;;;;1.15;1.15;;;6.30;99.90;;;;;;5074245;28;20182;-77
2020/12/29 09:57:40;;;;;;;1.38;1.27;;;6.40;99.90;;;;;;5074128;28;20223;-77
2020/12/29 10:00:07;;;;;;;2.05;1.50;;;6.30;99.90;;;;;;5074331;28;20515;-76
2020/12/29 10:02:33;;;;;;;2.00;1.90;;;6.30;99.90;;;;;;5073959;28;20186;-77
2020/12/29 10:04:58;;;;;;;4.65;1.65;;;6.20;99.90;;;;;;5074162;28;20265;-76
2020/12/29 10:07:24;;;;;;;6.20;1.35;;;6.20;99.90;;;;;;5073834;28;20241;-78
2020/12/29 10:09:49;;;;;;;2.08;1.95;;;6.30;99.90;;;;;;5073745;28;20155;-77
2020/12/29 10:12:15;;;;;;;1.55;1.48;;;6.30;99.90;;;;;;5072768;28;20568;-77
2020/12/29 10:14:40;;;;;;;0.45;0.45;;;6.30;99.90;;;;;;5073734;28;20262;-74
2020/12/29 10:17:06;;;;;;;3.63;1.83;;;6.20;99.90;;;;;;5074009;28;20162;-77
2020/12/29 10:19:32;;;;;;;0.77;0.77;;;6.10;99.90;;;;;;5074029;28;20162;-82
2020/12/29 10:21:57;;;;;;;1.63;1.52;;;6.00;99.90;;;;;;5073205;28;20206;-78
2020/12/29 10:24:23;;;;;;;1.23;1.00;;;6.00;99.90;;;;;;5075605;28;20179;-78
2020/12/29 10:26:50;;;;;;;1.42;1.38;;;6.00;99.90;;;;;;5073826;28;20245;-75
2020/12/29 10:29:17;;;;;;;1.63;1.45;;;6.00;99.90;;;;;;5073773;28;20147;-76
2020/12/29 10:31:42;;;;;;;1.42;1.42;;;6.00;99.90;;;;;;5077141;28;20213;-76
2020/12/29 10:34:14;;;;;;;1.80;1.67;;;6.10;99.90;;;;;;5075051;28;20194;-76
2020/12/29 10:36:40;;;;;;;0.75;0.75;;;6.00;99.90;;;;;;5073599;28;20158;-75
2020/12/29 10:39:07;;;;;;;0.90;0.90;;;6.20;99.90;;;;;;5073505;28;20267;-77
2020/12/29 10:41:35;;;;;;;1.33;1.27;;;6.20;99.90;;;;;;5073090;28;20175;-75
2020/12/29 10:44:01;;;;;;;4.47;2.80;;;6.40;99.90;;;;;;5073670;28;20161;-79
2020/12/29 10:46:26;;;;;;;1.45;1.45;;;6.50;99.90;;;;;;5073312;28;20166;-79
2020/12/29 10:48:52;;;;;;;6.10;1.70;;;6.50;99.90;;;;;;5073513;28;20677;-79
2020/12/29 10:51:23;;;;;;;0.95;0.95;;;6.50;99.90;;;;;;5073075;28;20190;-77
2020/12/29 10:53:50;;;;;;;1.08;1.08;;;6.20;99.90;;;;;;5064671;28;20178;-73
2020/12/29 10:56:15;;;;;;;1.08;1.08;;;6.20;99.90;;;;;;5072887;28;20173;-78
2020/12/29 10:58:44;;;;;;;3.33;2.22;;;6.20;99.90;;;;;;5072421;28;20482;-77
2020/12/29 11:01:15;;;;;;;3.53;0.82;;;6.20;99.90;;;;;;5069496;28;20192;-76
2020/12/29 11:03:41;;;;;;;1.08;0.98;;;6.10;99.90;;;;;;5070587;28;20228;-77
2020/12/29 11:06:13;;;;;;;1.70;1.60;;;6.30;99.90;;;;;;5055996;28;20199;-75
2020/12/29 11:08:40;;;;;;;1.70;0.88;;;6.30;99.90;;;;;;5053055;28;20182;-78
2020/12/29 11:11:05;;;;;;;2.25;1.55;;;6.20;99.90;;;;;;5059850;28;20223;-77
2020/12/29 11:13:31;;;;;;;4.70;2.50;;;6.20;99.90;;;;;;5069564;28;20602;-75
2020/12/29 11:15:57;;;;;;;0.55;0.55;;;6.10;99.90;;;;;;5075465;28;20201;-76
2020/12/29 11:18:22;;;;;;;0.60;0.60;;;6.00;99.90;;;;;;5073928;28;20178;-78
2020/12/29 11:20:51;;;;;;;1.25;1.25;;;6.00;99.90;;;;;;5069592;28;20251;-77
2020/12/29 11:23:17;;;;;;;1.35;1.27;;;5.90;99.90;;;;;;5053857;28;20285;-74
2020/12/29 11:25:43;;;;;;;1.20;1.20;;;6.10;99.90;;;;;;5052878;28;20230;-74
2020/12/29 11:28:08;;;;;;;1.20;1.17;;;6.00;99.90;;;;;;5053151;28;20168;-78
2020/12/29 11:30:34;;;;;;;0.93;0.93;;;6.00;99.90;;;;;;5053425;28;20152;-77
2020/12/29 11:33:00;;;;;;;6.25;1.27;;;6.00;99.90;;;;;;5052906;28;20186;-75
2020/12/29 11:35:25;;;;;;;0.95;0.95;;;5.90;99.90;;;;;;5052875;28;20190;-78
2020/12/29 11:37:51;;;;;;;0.82;0.82;;;6.00;99.90;;;;;;5053558;28;20174;-76
2020/12/29 11:40:16;;;;;;;3.70;1.42;;;6.20;99.90;;;;;;5052744;28;20206;-73
2020/12/29 11:42:42;;;;;;;4.18;1.80;;;6.50;99.90;;;;;;5052448;28;20168;-76
2020/12/29 11:45:07;;;;;;;2.60;2.47;;;6.50;99.90;;;;;;5052566;28;20187;-76
2020/12/29 11:47:33;;;;;;;1.17;1.17;;;6.60;99.90;;;;;;5052486;28;20183;-75
2020/12/29 11:49:59;;;;;;;1.02;1.00;;;6.50;99.90;;;;;;5052466;28;20611;-76
2020/12/29 11:52:24;;;;;;;1.23;1.23;;;6.60;99.90;;;;;;5052369;28;20207;-78
2020/12/29 11:54:51;;;;;;;3.95;1.92;;;6.60;99.90;;;;;;5056322;28;20300;-75
2020/12/29 11:57:17;;;;;;;1.77;1.67;;;6.60;99.90;;;;;;5056815;28;20585;-80
2020/12/29 11:59:42;;;;;;;2.20;1.73;;;6.70;99.90;;;;;;5055321;28;20159;-81
2020/12/29 12:02:08;;;;;;;1.38;1.38;;;6.70;99.90;;;;;;5056683;28;20651;-81
2020/12/29 12:04:33;;;;;;;0.73;0.73;;;6.80;99.90;;;;;;5054949;28;20183;-74
2020/12/29 12:06:59;;;;;;;1.30;1.25;;;6.90;99.90;;;;;;5056267;28;20191;-78
2020/12/29 12:09:24;;;;;;;13.18;2.03;;;6.80;99.90;;;;;;5055822;28;20174;-76
2020/12/29 12:11:50;;;;;;;0.57;0.57;;;6.80;99.90;;;;;;5055568;28;20235;-78
2020/12/29 12:14:16;;;;;;;2.20;2.05;;;6.70;99.90;;;;;;5055896;28;20183;-76
2020/12/29 12:16:42;;;;;;;0.95;0.95;;;6.50;99.90;;;;;;5056347;28;20160;-78
2020/12/29 12:19:08;;;;;;;0.93;0.88;;;6.50;99.90;;;;;;5056052;28;20627;-78
2020/12/29 12:21:34;;;;;;;0.55;0.55;;;6.60;99.90;;;;;;5056033;28;20258;-77
2020/12/29 12:24:00;;;;;;;1.67;1.58;;;6.60;99.90;;;;;;5056088;28;20163;-78
2020/12/29 12:26:27;;;;;;;2.40;1.60;;;6.70;99.90;;;;;;5056115;28;20167;-78
2020/12/29 12:28:53;;;;;;;1.58;1.48;;;6.70;99.90;;;;;;5056463;28;20167;-78
2020/12/29 12:31:19;;;;;;;1.88;1.77;;;6.80;99.90;;;;;;5056054;28;20276;-78
2020/12/29 12:33:45;;;;;;;0.77;0.77;;;6.80;99.90;;;;;;5055968;28;20155;-78
2020/12/29 12:36:12;;;;;;;1.95;1.85;;;7.00;99.90;;;;;;5055894;28;20190;-78
2020/12/29 12:38:40;;;;;;;2.92;1.40;;;7.20;99.90;;;;;;5055582;28;20162;-77
2020/12/29 12:41:07;;;;;;;1.00;1.00;;;7.20;99.90;;;;;;5055563;28;20176;-75
2020/12/29 12:43:32;;;;;;;1.80;1.70;;;7.30;99.90;;;;;;5056001;28;20191;-75
2020/12/29 12:45:58;;;;;;;1.40;1.30;;;7.20;99.90;;;;;;5055389;28;20448;-75
2020/12/29 12:48:23;;;;;;;2.17;1.63;;;7.10;99.90;;;;;;5055292;28;20175;-77
2020/12/29 12:50:49;;;;;;;1.00;1.00;;;7.10;99.90;;;;;;5055874;28;20209;-78
2020/12/29 12:53:15;;;;;;;27.80;2.58;;;7.10;99.90;;;;;;5055347;28;20159;-75
2020/12/29 12:55:40;;;;;;;0.45;0.45;;;7.20;99.90;;;;;;5055158;28;20226;-75
2020/12/29 12:58:06;;;;;;;0.65;0.65;;;7.00;99.90;;;;;;5056444;28;20246;-78
2020/12/29 13:00:32;;;;;;;0.70;0.70;;;7.20;99.90;;;;;;5055232;28;20159;-76